createdAt,value
2018-07-27T00:00:04.551Z,6.13
2018-07-27T00:02:32.792Z,8.20
2018-07-27T00:05:01.004Z,7.83
2018-07-27T00:07:29.211Z,5.27
2018-07-27T00:09:57.428Z,5.70
2018-07-27T00:12:25.635Z,8.77
2018-07-27T00:14:53.841Z,4.60
2018-07-27T00:17:22.068Z,5.77
2018-07-27T00:19:50.265Z,5.03
2018-07-27T00:22:19.456Z,7.80
2018-07-27T00:24:47.663Z,7.53
2018-07-27T00:27:15.860Z,6.30
2018-07-27T00:29:44.072Z,6.70
2018-07-27T00:32:12.289Z,5.57
2018-07-27T00:34:40.529Z,6.63
2018-07-27T00:39:59.367Z,6.37
2018-07-27T00:42:34.188Z,8.03
2018-07-27T00:48:20.379Z,5.30
2018-07-27T00:50:48.580Z,7.47
2018-07-27T00:53:16.748Z,8.67
2018-07-27T00:55:44.960Z,6.13
2018-07-27T00:58:13.147Z,8.93
2018-07-27T01:00:41.347Z,6.30
2018-07-27T01:03:09.649Z,9.17
2018-07-27T01:05:37.883Z,7.37
2018-07-27T01:08:06.330Z,6.57
2018-07-27T01:10:34.527Z,6.30
2018-07-27T01:13:02.736Z,6.30
2018-07-27T01:15:30.927Z,8.77
2018-07-27T01:17:59.155Z,6.47
2018-07-27T01:20:27.334Z,7.60
2018-07-27T01:22:55.559Z,7.53
2018-07-27T01:25:24.460Z,7.60
2018-07-27T01:27:52.662Z,7.03
2018-07-27T01:30:20.847Z,9.53
2018-07-27T01:32:49.051Z,6.80
2018-07-27T01:35:17.228Z,8.77
2018-07-27T01:37:45.423Z,6.90
2018-07-27T01:40:13.615Z,4.93
2018-07-27T01:42:41.819Z,5.93
2018-07-27T01:45:10.015Z,7.23
2018-07-27T01:47:37.991Z,6.10
2018-07-27T01:50:06.439Z,5.20
2018-07-27T01:52:34.623Z,6.47
2018-07-27T01:55:02.820Z,5.90
2018-07-27T01:57:30.992Z,7.77
2018-07-27T01:59:59.890Z,9.83
2018-07-27T02:02:28.183Z,6.10
2018-07-27T02:04:56.375Z,8.30
2018-07-27T02:07:24.587Z,7.90
2018-07-27T02:09:52.780Z,7.00
2018-07-27T02:12:20.956Z,7.27
2018-07-27T02:14:49.180Z,7.47
2018-07-27T02:17:17.375Z,8.03
2018-07-27T02:19:45.567Z,10.23
2018-07-27T02:22:13.819Z,6.80
2018-07-27T02:24:42.011Z,8.13
2018-07-27T02:27:10.196Z,6.63
2018-07-27T02:29:38.387Z,7.77
2018-07-27T02:32:06.567Z,6.67
2018-07-27T02:34:34.771Z,8.53
2018-07-27T02:37:02.944Z,9.73
2018-07-27T02:39:31.156Z,10.73
2018-07-27T02:41:59.359Z,6.93
2018-07-27T02:44:27.531Z,7.47
2018-07-27T02:46:55.795Z,7.53
2018-07-27T02:49:24.012Z,9.43
2018-07-27T02:51:52.188Z,12.00
2018-07-27T02:54:20.388Z,7.00
2018-07-27T02:56:48.552Z,8.17
2018-07-27T02:59:16.768Z,7.13
2018-07-27T03:01:45.048Z,6.70
2018-07-27T03:04:13.837Z,8.30
2018-07-27T03:06:41.803Z,7.97
2018-07-27T03:09:11.140Z,7.30
2018-07-27T03:11:39.520Z,8.10
2018-07-27T03:14:07.843Z,6.20
2018-07-27T03:16:36.028Z,8.43
2018-07-27T03:19:04.239Z,6.30
2018-07-27T03:21:32.440Z,7.30
2018-07-27T03:24:00.632Z,7.90
2018-07-27T03:26:28.848Z,8.40
2018-07-27T03:28:57.052Z,7.80
2018-07-27T03:31:25.932Z,7.97
2018-07-27T03:33:54.692Z,6.43
2018-07-27T03:36:22.885Z,8.57
2018-07-27T03:38:51.079Z,8.03
2018-07-27T03:41:19.279Z,7.90
2018-07-27T03:43:47.511Z,6.07
2018-07-27T03:46:15.685Z,6.20
2018-07-27T03:48:43.602Z,7.40
2018-07-27T03:51:11.822Z,8.50
2018-07-27T03:53:39.994Z,8.27
2018-07-27T03:56:08.225Z,6.60
2018-07-27T03:58:36.403Z,7.27
2018-07-27T04:01:04.623Z,9.60
2018-07-27T04:03:32.791Z,6.23
2018-07-27T04:06:00.974Z,7.67
2018-07-27T04:08:29.204Z,9.67
2018-07-27T04:10:58.208Z,6.77
2018-07-27T04:13:26.399Z,9.87
2018-07-27T04:15:54.606Z,9.10
2018-07-27T04:18:22.844Z,8.40
2018-07-27T04:20:51.042Z,9.23
2018-07-27T04:23:19.248Z,6.77
2018-07-27T04:25:47.453Z,8.63
2018-07-27T04:28:15.664Z,9.30
2018-07-27T04:30:43.872Z,8.93
2018-07-27T04:33:12.047Z,11.77
2018-07-27T04:35:40.307Z,9.90
2018-07-27T04:38:08.782Z,11.47
2018-07-27T04:40:36.979Z,9.27
2018-07-27T04:43:05.201Z,6.93
2018-07-27T04:45:33.360Z,8.07
2018-07-27T04:48:01.639Z,11.63
2018-07-27T04:50:29.827Z,10.27
2018-07-27T04:52:58.006Z,8.17
2018-07-27T04:55:26.240Z,6.47
2018-07-27T04:57:54.459Z,10.93
2018-07-27T05:00:22.679Z,9.30
2018-07-27T05:02:50.904Z,12.47
2018-07-27T05:05:19.128Z,9.20
2018-07-27T05:07:47.323Z,12.70
2018-07-27T05:10:20.882Z,8.80
2018-07-27T05:12:49.084Z,9.47
2018-07-27T05:15:17.252Z,9.33
2018-07-27T05:17:45.453Z,9.40
2018-07-27T05:20:13.687Z,8.23
2018-07-27T05:22:41.899Z,8.10
2018-07-27T05:25:10.111Z,7.60
2018-07-27T05:27:38.330Z,7.57
2018-07-27T05:30:06.519Z,8.53
2018-07-27T05:32:34.720Z,6.47
2018-07-27T05:35:02.944Z,9.00
2018-07-27T05:37:31.139Z,7.27
2018-07-27T05:39:59.331Z,7.80
2018-07-27T05:42:27.535Z,8.27
2018-07-27T05:44:55.725Z,8.23
2018-07-27T05:47:23.930Z,8.57
2018-07-27T05:49:52.116Z,6.60
2018-07-27T05:52:20.317Z,7.87
2018-07-27T05:54:48.884Z,5.93
2018-07-27T05:57:17.074Z,7.73
2018-07-27T05:59:45.287Z,5.93
2018-07-27T06:02:13.487Z,8.20
2018-07-27T06:04:41.730Z,6.47
2018-07-27T06:07:09.890Z,6.47
2018-07-27T06:09:38.092Z,7.10
2018-07-27T06:12:06.520Z,6.90
2018-07-27T06:14:34.775Z,6.40
2018-07-27T06:17:02.937Z,9.10
2018-07-27T06:19:31.228Z,9.37
2018-07-27T06:21:59.423Z,6.77
2018-07-27T06:24:33.498Z,9.57
2018-07-27T06:27:01.677Z,5.77
2018-07-27T06:29:29.884Z,9.77
2018-07-27T06:31:58.102Z,5.20
2018-07-27T06:34:26.326Z,5.77
2018-07-27T06:36:54.531Z,7.50
2018-07-27T06:39:22.716Z,5.93
2018-07-27T06:41:50.915Z,9.13
2018-07-27T06:44:19.121Z,5.77
2018-07-27T06:46:47.303Z,5.97
2018-07-27T06:49:15.519Z,7.80
2018-07-27T06:51:43.727Z,6.30
2018-07-27T06:54:11.920Z,4.10
2018-07-27T06:56:40.138Z,5.30
2018-07-27T06:59:08.323Z,5.97
2018-07-27T07:01:36.519Z,6.83
2018-07-27T07:04:04.541Z,7.17
2018-07-27T07:06:32.723Z,6.70
2018-07-27T07:09:00.956Z,8.50
2018-07-27T07:11:29.127Z,6.27
2018-07-27T07:13:57.330Z,9.13
2018-07-27T07:16:25.539Z,7.50
2018-07-27T07:18:54.023Z,9.10
2018-07-27T07:21:22.230Z,8.07
2018-07-27T07:23:50.425Z,6.80
2018-07-27T07:26:18.632Z,9.63
2018-07-27T07:28:46.840Z,7.57
2018-07-27T07:31:15.035Z,10.67
2018-07-27T07:33:43.219Z,9.20
2018-07-27T07:36:11.438Z,10.93
2018-07-27T07:38:39.646Z,9.93
2018-07-27T07:41:07.879Z,10.23
2018-07-27T07:43:36.111Z,8.30
2018-07-27T07:46:04.319Z,8.17
2018-07-27T07:48:32.523Z,7.57
2018-07-27T07:51:00.716Z,8.57
2018-07-27T07:53:28.924Z,6.97
2018-07-27T07:55:57.157Z,6.80
2018-07-27T07:58:25.364Z,7.47
2018-07-27T08:00:53.604Z,12.60
2018-07-27T08:03:21.858Z,9.57
2018-07-27T08:05:50.062Z,6.40
2018-07-27T08:08:18.235Z,9.40
2018-07-27T08:10:46.781Z,5.77
2018-07-27T08:13:14.989Z,7.57
2018-07-27T08:15:43.204Z,5.93
2018-07-27T08:18:11.446Z,6.93
2018-07-27T08:20:39.648Z,6.10
2018-07-27T08:23:07.992Z,6.23
2018-07-27T08:26:44.197Z,5.60
2018-07-27T08:29:13.405Z,6.90
2018-07-27T08:31:42.890Z,7.20
2018-07-27T08:34:11.605Z,5.73
2018-07-27T08:36:39.796Z,4.33
2018-07-27T08:39:09.056Z,5.33
2018-07-27T08:41:38.743Z,5.10
2018-07-27T08:44:07.512Z,6.50
2018-07-27T08:46:35.807Z,8.20
2018-07-27T08:49:04.003Z,7.13
2018-07-27T08:51:32.392Z,5.70
2018-07-27T08:54:00.853Z,4.87
2018-07-27T08:56:29.064Z,5.30
2018-07-27T08:58:57.323Z,5.97
2018-07-27T09:01:25.693Z,5.27
2018-07-27T09:03:54.089Z,4.50
2018-07-27T09:06:22.797Z,7.13
2018-07-27T09:08:51.303Z,5.33
2018-07-27T09:11:20.049Z,5.83
2018-07-27T09:13:48.625Z,4.17
2018-07-27T09:16:17.747Z,5.43
2018-07-27T09:18:45.928Z,4.00
2018-07-27T09:21:14.167Z,3.40
2018-07-27T09:23:42.391Z,3.40
2018-07-27T09:26:10.583Z,5.03
2018-07-27T09:28:39.092Z,3.70
2018-07-27T09:31:07.292Z,5.60
2018-07-27T09:33:36.068Z,6.07
2018-07-27T09:36:04.296Z,4.67
2018-07-27T09:38:32.500Z,4.20
2018-07-27T09:41:00.702Z,3.60
2018-07-27T09:43:29.015Z,4.40
2018-07-27T09:45:57.211Z,6.20
2018-07-27T09:48:25.419Z,3.33
2018-07-27T09:50:53.347Z,4.07
2018-07-27T09:53:21.570Z,4.30
2018-07-27T09:55:49.766Z,4.53
2018-07-27T09:58:17.966Z,3.33
2018-07-27T10:00:51.572Z,3.77
2018-07-27T10:03:19.877Z,3.83
2018-07-27T10:05:48.095Z,3.80
2018-07-27T10:08:16.267Z,4.23
2018-07-27T10:10:44.467Z,3.83
2018-07-27T10:13:12.657Z,3.60
2018-07-27T10:15:40.863Z,4.47
2018-07-27T10:18:09.066Z,3.77
2018-07-27T10:20:37.022Z,3.33
2018-07-27T10:23:05.296Z,4.47
2018-07-27T10:25:33.502Z,6.23
2018-07-27T10:28:01.718Z,4.67
2018-07-27T10:30:29.935Z,5.13
2018-07-27T10:32:58.111Z,6.50
2018-07-27T10:35:26.296Z,5.27
2018-07-27T10:37:54.515Z,3.70
2018-07-27T10:40:22.747Z,4.10
2018-07-27T10:42:50.955Z,5.47
2018-07-27T10:45:19.137Z,4.17
2018-07-27T10:47:47.347Z,5.70
2018-07-27T10:50:15.589Z,4.20
2018-07-27T10:52:43.751Z,4.10
2018-07-27T10:55:11.948Z,6.33
2018-07-27T10:57:40.135Z,11.33
2018-07-27T11:00:13.091Z,5.23
2018-07-27T11:02:41.388Z,5.13
2018-07-27T11:05:09.827Z,4.80
2018-07-27T11:07:38.049Z,4.73
2018-07-27T11:10:06.823Z,5.57
2018-07-27T11:12:35.395Z,8.50
2018-07-27T11:15:03.648Z,5.67
2018-07-27T11:17:31.909Z,5.27
2018-07-27T11:20:00.045Z,5.07
2018-07-27T11:22:28.267Z,4.83
2018-07-27T11:24:56.198Z,6.17
2018-07-27T11:27:24.406Z,5.50
2018-07-27T11:29:52.583Z,5.70
2018-07-27T11:32:20.841Z,6.17
2018-07-27T11:34:49.051Z,5.13
2018-07-27T11:37:17.328Z,6.00
2018-07-27T11:39:45.491Z,5.00
2018-07-27T11:42:13.743Z,4.90
2018-07-27T11:44:41.927Z,4.28
2018-07-27T11:47:10.761Z,4.37
2018-07-27T11:49:38.969Z,4.78
2018-07-27T11:52:07.227Z,7.55
2018-07-27T11:54:35.420Z,4.83
2018-07-27T11:57:03.647Z,4.65
2018-07-27T11:59:31.856Z,4.95
2018-07-27T12:02:00.128Z,5.08
2018-07-27T12:04:28.381Z,4.33
2018-07-27T12:06:56.576Z,4.85
2018-07-27T12:09:24.755Z,4.75
2018-07-27T12:11:52.955Z,5.70
2018-07-27T12:14:21.264Z,4.70
2018-07-27T12:16:49.363Z,5.03
2018-07-27T12:19:17.582Z,4.33
2018-07-27T12:21:45.912Z,5.03
2018-07-27T12:24:14.062Z,3.67
2018-07-27T12:26:42.278Z,3.70
2018-07-27T12:29:10.480Z,3.98
2018-07-27T12:31:38.683Z,4.12
2018-07-27T12:34:06.895Z,4.25
2018-07-27T12:36:35.415Z,4.65
2018-07-27T12:39:03.916Z,3.77
2018-07-27T12:41:32.234Z,4.15
2018-07-27T12:44:00.419Z,4.30
2018-07-27T12:46:28.624Z,10.53
2018-07-27T12:48:56.818Z,4.65
2018-07-27T12:51:25.041Z,5.87
2018-07-27T12:53:53.340Z,3.62
2018-07-27T12:56:21.467Z,4.42
2018-07-27T12:58:49.695Z,4.10
2018-07-27T13:01:18.012Z,4.87
2018-07-27T13:03:46.408Z,5.50
2018-07-27T13:06:14.642Z,4.58
2018-07-27T13:08:42.867Z,4.55
2018-07-27T13:11:11.059Z,4.33
2018-07-27T13:13:39.233Z,3.87
2018-07-27T13:16:07.601Z,4.92
2018-07-27T13:18:35.719Z,4.30
2018-07-27T13:21:03.888Z,7.28
2018-07-27T13:23:32.077Z,3.90
2018-07-27T13:26:26.911Z,4.53
2018-07-27T13:28:40.707Z,4.70
2018-07-27T13:31:09.633Z,5.97
2018-07-27T13:33:37.844Z,4.20
2018-07-27T13:36:06.099Z,6.37
2018-07-27T13:38:34.105Z,5.25
2018-07-27T13:41:02.300Z,5.65
2018-07-27T13:43:30.607Z,5.10
2018-07-27T13:45:58.814Z,5.22
2018-07-27T13:48:27.031Z,5.62
2018-07-27T13:50:55.247Z,4.05
2018-07-27T13:53:23.467Z,4.47
2018-07-27T13:55:51.685Z,5.15
2018-07-27T13:58:19.907Z,3.95
2018-07-27T14:00:48.091Z,4.65
2018-07-27T14:03:16.296Z,4.95
2018-07-27T14:05:44.484Z,4.83
2018-07-27T14:08:12.680Z,4.92
2018-07-27T14:10:40.872Z,4.47
2018-07-27T14:13:09.085Z,4.65
2018-07-27T14:15:37.260Z,4.55
2018-07-27T14:18:05.523Z,4.60
2018-07-27T14:20:33.696Z,5.40
2018-07-27T14:23:01.924Z,5.65
2018-07-27T14:25:30.113Z,4.05
2018-07-27T14:27:58.316Z,5.37
2018-07-27T14:30:26.508Z,4.30
2018-07-27T14:32:54.679Z,4.87
2018-07-27T14:35:22.907Z,5.72
2018-07-27T14:37:51.108Z,4.42
2018-07-27T14:40:19.288Z,4.95
2018-07-27T14:42:47.475Z,4.35
2018-07-27T14:45:15.681Z,3.80
2018-07-27T14:47:43.876Z,4.28
2018-07-27T14:50:12.060Z,4.72
2018-07-27T14:52:40.310Z,4.83
2018-07-27T14:55:08.435Z,4.37
2018-07-27T14:57:36.623Z,4.85
2018-07-27T15:00:05.856Z,4.30
2018-07-27T15:02:34.072Z,5.17
2018-07-27T15:05:02.083Z,4.35
2018-07-27T15:07:29.986Z,5.33
2018-07-27T15:09:58.170Z,4.30
2018-07-27T15:12:26.635Z,4.03
2018-07-27T15:14:55.001Z,4.15
2018-07-27T15:17:23.207Z,4.05
2018-07-27T15:19:51.396Z,4.72
2018-07-27T15:22:19.612Z,5.22
2018-07-27T15:24:47.811Z,6.03
2018-07-27T15:27:16.019Z,4.80
2018-07-27T15:29:43.958Z,4.25
2018-07-27T15:32:12.139Z,4.22
2018-07-27T15:34:40.407Z,5.92
2018-07-27T15:37:08.589Z,4.37
2018-07-27T15:39:36.810Z,5.50
2018-07-27T15:42:04.991Z,4.05
2018-07-27T15:44:33.419Z,4.22
2018-07-27T15:47:02.743Z,4.20
2018-07-27T15:49:30.931Z,5.10
2018-07-27T15:51:59.119Z,4.95
2018-07-27T15:54:27.102Z,4.10
2018-07-27T15:56:55.309Z,4.42
2018-07-27T15:59:23.601Z,3.80
2018-07-27T16:01:51.895Z,3.80
2018-07-27T16:04:20.084Z,4.25
2018-07-27T16:06:48.376Z,4.22
2018-07-27T16:09:16.635Z,4.37
2018-07-27T16:11:44.819Z,4.03
2018-07-27T16:14:12.791Z,5.78
2018-07-27T16:16:40.975Z,4.60
2018-07-27T16:19:08.903Z,4.47
2018-07-27T16:21:37.083Z,4.20
2018-07-27T16:24:05.319Z,4.97
2018-07-27T16:26:33.544Z,4.70
2018-07-27T16:29:01.732Z,3.90
2018-07-27T16:31:30.052Z,4.00
2018-07-27T16:33:58.245Z,4.50
2018-07-27T16:36:26.440Z,4.03
2018-07-27T16:38:54.781Z,4.15
2018-07-27T16:41:22.957Z,3.75
2018-07-27T16:43:52.122Z,4.08
2018-07-27T16:46:20.304Z,4.08
2018-07-27T16:48:48.524Z,4.25
2018-07-27T16:51:16.796Z,4.08
2018-07-27T16:53:45.054Z,4.47
2018-07-27T16:56:13.247Z,5.62
2018-07-27T16:58:41.671Z,5.10
2018-07-27T17:01:09.857Z,7.12
2018-07-27T17:03:38.047Z,3.80
2018-07-27T17:06:06.006Z,4.15
2018-07-27T17:08:34.178Z,4.45
2018-07-27T17:11:02.401Z,4.35
2018-07-27T17:13:30.664Z,4.20
2018-07-27T17:15:58.809Z,4.15
2018-07-27T17:18:27.033Z,4.75
2018-07-27T17:20:55.235Z,4.75
2018-07-27T17:23:23.455Z,4.33
2018-07-27T17:25:51.758Z,3.85
2018-07-27T17:28:19.931Z,3.92
2018-07-27T17:30:47.883Z,5.40
2018-07-27T17:33:16.101Z,6.25
2018-07-27T17:35:44.282Z,8.15
2018-07-27T17:38:12.483Z,5.58
2018-07-27T17:40:40.679Z,3.72
2018-07-27T17:43:08.946Z,4.80
2018-07-27T17:45:37.620Z,3.85
2018-07-27T17:48:05.823Z,3.65
2018-07-27T17:50:34.025Z,3.40
2018-07-27T17:53:02.215Z,3.55
2018-07-27T17:55:30.424Z,3.83
2018-07-27T17:57:58.627Z,3.62
2018-07-27T18:00:26.866Z,3.70
2018-07-27T18:02:55.066Z,5.20
2018-07-27T18:05:23.631Z,4.12
2018-07-27T18:07:52.122Z,3.40
2018-07-27T18:10:20.547Z,3.60
2018-07-27T18:12:48.771Z,3.58
2018-07-27T18:15:17.297Z,4.80
2018-07-27T18:17:45.718Z,3.30
2018-07-27T18:20:13.915Z,4.10
2018-07-27T18:22:42.107Z,3.72
2018-07-27T18:25:12.854Z,4.87
2018-07-27T18:27:41.052Z,5.62
2018-07-27T18:30:10.122Z,3.72
2018-07-27T18:32:38.355Z,8.43
2018-07-27T18:35:07.293Z,5.12
2018-07-27T18:37:35.464Z,4.12
2018-07-27T18:40:03.700Z,5.28
2018-07-27T18:42:31.881Z,4.05
2018-07-27T18:45:00.093Z,3.98
2018-07-27T18:47:28.294Z,4.25
2018-07-27T18:49:56.532Z,7.28
2018-07-27T18:52:25.600Z,5.20
2018-07-27T18:54:53.811Z,4.93
2018-07-27T18:57:21.743Z,4.73
2018-07-27T18:59:49.951Z,3.93
2018-07-27T19:02:18.132Z,5.40
2018-07-27T19:07:25.387Z,4.23
2018-07-27T19:09:53.664Z,6.47
2018-07-27T19:12:21.867Z,4.83
2018-07-27T19:14:49.831Z,6.23
2018-07-27T19:17:18.050Z,4.30
2018-07-27T19:19:46.261Z,4.67
2018-07-27T19:22:14.435Z,4.17
2018-07-27T19:24:42.888Z,4.47
2018-07-27T19:27:11.126Z,5.73
2018-07-27T19:29:39.324Z,4.47
2018-07-27T19:32:07.540Z,5.83
2018-07-27T19:34:35.777Z,4.60
2018-07-27T19:37:03.970Z,5.87
2018-07-27T19:39:32.171Z,7.83
2018-07-27T19:42:00.463Z,5.20
2018-07-27T19:44:28.615Z,5.00
2018-07-27T19:46:56.607Z,5.57
2018-07-27T19:49:24.757Z,5.17
2018-07-27T19:51:52.947Z,6.30
2018-07-27T19:54:21.162Z,5.10
2018-07-27T19:56:49.320Z,6.37
2018-07-27T19:59:17.519Z,5.47
2018-07-27T20:01:45.711Z,4.20
2018-07-27T20:04:13.902Z,4.87
2018-07-27T20:06:42.079Z,5.70
2018-07-27T20:09:10.762Z,4.77
2018-07-27T20:11:38.750Z,5.27
2018-07-27T20:14:06.674Z,5.73
2018-07-27T20:16:34.892Z,7.03
2018-07-27T20:19:03.077Z,5.30
2018-07-27T20:21:31.295Z,5.07
2018-07-27T20:23:59.503Z,6.07
2018-07-27T20:26:27.936Z,6.67
2018-07-27T20:28:56.120Z,4.97
2018-07-27T20:31:24.328Z,5.43
2018-07-27T20:33:52.723Z,5.50
2018-07-27T20:36:20.935Z,6.47
2018-07-27T20:38:49.136Z,6.53
2018-07-27T20:41:17.336Z,6.37
2018-07-27T20:43:45.557Z,5.37
2018-07-27T20:46:13.759Z,6.13
2018-07-27T20:48:41.712Z,4.83
2018-07-27T20:51:09.924Z,6.03
2018-07-27T20:53:38.127Z,4.93
2018-07-27T20:56:06.372Z,5.90
2018-07-27T20:58:34.681Z,7.33
2018-07-27T21:01:03.654Z,5.33
2018-07-27T21:03:31.851Z,5.63
2018-07-27T21:06:00.053Z,5.20
2018-07-27T21:08:28.251Z,5.90
2018-07-27T21:10:56.435Z,6.00
2018-07-27T21:13:24.675Z,4.73
2018-07-27T21:15:52.847Z,5.07
2018-07-27T21:18:21.048Z,5.80
2018-07-27T21:20:49.243Z,5.17
2018-07-27T21:23:17.439Z,7.13
2018-07-27T21:25:45.803Z,6.17
2018-07-27T21:28:14.012Z,5.60
2018-07-27T21:30:42.207Z,5.57
2018-07-27T21:33:10.416Z,9.40
2018-07-27T21:35:40.595Z,6.97
2018-07-27T21:38:09.147Z,7.50
2018-07-27T21:40:37.407Z,5.87
2018-07-27T21:43:05.627Z,6.67
2018-07-27T21:45:33.856Z,8.27
2018-07-27T21:48:02.188Z,7.80
2018-07-27T21:50:30.383Z,5.77
2018-07-27T21:52:58.598Z,6.57
2018-07-27T21:55:26.811Z,7.57
2018-07-27T21:57:55.055Z,6.77
2018-07-27T22:00:23.267Z,7.20
2018-07-27T22:02:51.192Z,6.33
2018-07-27T22:05:19.403Z,6.80
2018-07-27T22:07:51.865Z,6.03
2018-07-27T22:10:20.073Z,6.90
2018-07-27T22:12:48.443Z,6.40
2018-07-27T22:15:21.156Z,8.13
2018-07-27T22:17:49.666Z,7.57
2018-07-27T22:20:17.879Z,6.20
2018-07-27T22:22:46.454Z,7.97
2018-07-27T22:25:14.665Z,7.87
2018-07-27T22:27:44.543Z,11.53
2018-07-27T22:30:13.168Z,9.07
2018-07-27T22:32:41.363Z,8.10
2018-07-27T22:35:09.561Z,6.70
2018-07-27T22:37:39.055Z,6.67
2018-07-27T22:40:08.081Z,7.00
2018-07-27T22:42:36.271Z,9.33
2018-07-27T22:45:05.259Z,7.30
2018-07-27T22:47:33.453Z,7.00
2018-07-27T22:50:01.647Z,7.17
2018-07-27T22:52:34.096Z,10.40
2018-07-27T22:55:02.283Z,10.27
2018-07-27T22:57:30.494Z,7.67
2018-07-27T22:59:58.700Z,8.00
2018-07-27T23:02:26.903Z,8.77
2018-07-27T23:04:55.291Z,10.30
2018-07-27T23:07:23.479Z,7.43
2018-07-27T23:09:51.663Z,10.30
2018-07-27T23:12:19.876Z,11.63
2018-07-27T23:14:48.079Z,8.43
2018-07-27T23:17:16.550Z,8.27
2018-07-27T23:19:44.747Z,7.03
2018-07-27T23:22:12.947Z,10.67
2018-07-27T23:24:41.163Z,10.03
2018-07-27T23:27:09.399Z,7.03
2018-07-27T23:29:37.601Z,8.10
2018-07-27T23:32:05.927Z,7.93
2018-07-27T23:34:34.107Z,12.27
2018-07-27T23:37:02.287Z,9.70
2018-07-27T23:39:30.476Z,10.33
2018-07-27T23:41:58.679Z,10.47
2018-07-27T23:44:26.858Z,8.97
2018-07-27T23:46:55.089Z,8.17
2018-07-27T23:49:23.267Z,10.43
2018-07-27T23:51:51.563Z,10.37
2018-07-27T23:54:19.763Z,9.63
2018-07-27T23:56:47.955Z,8.67
2018-07-27T23:59:16.163Z,12.23
